Time;durP1;ratioP1;P1;durP2;ratioP2;P2;SDS_P1;SDS_P2;PMS_P1;PMS_P2;Temp;Humidity;BMP_temperature;BMP_pressure;BME280_temperature;BME280_humidity;BME280_pressure;Samples;Min_cycle;Max_cycle;Signal;HPM_P1;HPM_P2
2022/03/26 00:01:45;;;;;;;34.50;16.67;;;5.70;99.90;;;;;;4826747;29;20079;-76
2022/03/26 00:04:11;;;;;;;34.83;17.55;;;5.70;99.90;;;;;;4825962;29;20097;-76
2022/03/26 00:06:38;;;;;;;32.15;16.55;;;6.00;99.90;;;;;;4826630;29;20054;-76
2022/03/26 00:09:04;;;;;;;32.20;16.50;;;5.90;99.90;;;;;;4826631;29;20057;-76
2022/03/26 00:11:30;;;;;;;36.08;16.90;;;6.00;99.90;;;;;;4826640;29;20058;-76
2022/03/26 00:13:56;;;;;;;32.28;17.17;;;6.00;99.90;;;;;;4826585;29;20057;-76
2022/03/26 00:16:21;;;;;;;34.15;17.88;;;6.00;99.90;;;;;;4825658;29;20042;-76
2022/03/26 00:18:47;;;;;;;34.25;15.95;;;6.00;99.90;;;;;;4827057;29;20082;-76
2022/03/26 00:21:13;;;;;;;29.52;15.10;;;6.00;99.90;;;;;;4826482;29;20069;-76
2022/03/26 00:23:38;;;;;;;30.88;14.90;;;5.90;99.90;;;;;;4826472;29;20053;-76
2022/03/26 00:26:04;;;;;;;24.38;13.18;;;6.70;99.90;;;;;;4826375;29;20133;-76
2022/03/26 00:28:30;;;;;;;28.92;14.73;;;5.80;99.90;;;;;;4826361;29;20054;-76
2022/03/26 00:30:56;;;;;;;29.42;13.55;;;5.80;99.90;;;;;;4826427;29;20133;-76
2022/03/26 00:33:22;;;;;;;33.95;17.67;;;5.70;99.90;;;;;;4826269;29;20133;-76
2022/03/26 00:35:47;;;;;;;36.30;17.42;;;5.70;99.90;;;;;;4826289;29;20164;-76
2022/03/26 00:38:13;;;;;;;31.98;15.45;;;5.60;99.90;;;;;;4827025;29;20084;-76
2022/03/26 00:40:40;;;;;;;30.77;15.82;;;5.90;99.90;;;;;;4825561;29;20054;-76
2022/03/26 00:43:07;;;;;;;34.38;17.83;;;5.50;99.90;;;;;;4826669;29;20065;-76
2022/03/26 00:45:32;;;;;;;32.38;16.10;;;5.40;99.90;;;;;;4826113;29;20134;-76
2022/03/26 00:48:00;;;;;;;32.70;16.58;;;5.50;99.90;;;;;;4824002;29;20492;-76
2022/03/26 00:50:26;;;;;;;34.33;16.83;;;5.40;99.90;;;;;;4826107;29;20054;-76
2022/03/26 00:52:52;;;;;;;41.85;21.70;;;5.30;99.90;;;;;;4825768;29;20491;-76
2022/03/26 00:55:17;;;;;;;40.75;18.40;;;5.40;99.90;;;;;;4826009;29;20129;-76
2022/03/26 00:57:43;;;;;;;38.92;18.92;;;5.40;99.90;;;;;;4827343;29;20050;-76
2022/03/26 01:00:10;;;;;;;44.67;21.10;;;5.50;99.90;;;;;;4827555;29;20400;-76
2022/03/26 01:02:36;;;;;;;39.00;19.38;;;5.40;99.90;;;;;;4827052;29;20520;-76
2022/03/26 01:05:04;;;;;;;32.05;16.77;;;5.40;99.90;;;;;;4825880;29;20058;-76
2022/03/26 01:07:30;;;;;;;39.38;20.25;;;5.40;99.90;;;;;;4825814;29;20046;-76
2022/03/26 01:09:56;;;;;;;44.50;21.88;;;5.40;99.90;;;;;;4825810;29;20449;-76
2022/03/26 01:12:22;;;;;;;42.95;22.13;;;5.30;99.90;;;;;;4825752;29;20053;-76
2022/03/26 01:14:50;;;;;;;44.47;21.35;;;5.30;99.90;;;;;;4825716;29;20050;-77
2022/03/26 01:17:16;;;;;;;46.28;23.67;;;5.30;99.90;;;;;;4825722;29;20046;-76
2022/03/26 01:19:43;;;;;;;43.85;20.25;;;5.30;99.90;;;;;;4824776;29;20061;-76
2022/03/26 01:22:08;;;;;;;46.70;22.63;;;5.60;99.90;;;;;;4825601;29;20132;-77
2022/03/26 01:24:34;;;;;;;41.70;20.67;;;5.30;99.90;;;;;;4825608;29;20046;-76
2022/03/26 01:27:00;;;;;;;49.28;23.60;;;5.30;99.90;;;;;;4825464;29;20401;-76
2022/03/26 01:29:26;;;;;;;45.95;21.67;;;5.20;99.90;;;;;;4825271;29;20046;-76
2022/03/26 01:31:53;;;;;;;52.97;24.25;;;5.20;99.90;;;;;;4824882;29;20050;-76
2022/03/26 01:34:19;;;;;;;51.78;23.02;;;5.60;99.90;;;;;;4825187;29;20550;-76
2022/03/26 01:36:45;;;;;;;49.60;21.85;;;6.40;99.90;;;;;;4825460;29;20054;-76
2022/03/26 01:39:11;;;;;;;51.70;24.65;;;5.30;99.90;;;;;;4825421;29;20560;-76
2022/03/26 01:41:37;;;;;;;58.28;27.10;;;5.40;99.90;;;;;;4825595;29;20046;-76
2022/03/26 01:44:03;;;;;;;52.95;24.75;;;5.30;99.90;;;;;;4825333;29;20051;-76
2022/03/26 01:46:51;;;;;;;53.65;25.73;;;5.30;99.90;;;;;;4824822;29;20061;-76
2022/03/26 01:49:17;;;;;;;54.08;26.35;;;5.30;99.90;;;;;;4825079;29;20058;-76
2022/03/26 01:51:44;;;;;;;54.17;26.23;;;5.40;99.90;;;;;;4825582;29;20427;-76
2022/03/26 01:54:11;;;;;;;55.55;26.58;;;5.30;99.90;;;;;;4809237;29;20062;-76
2022/03/26 01:56:38;;;;;;;64.45;29.50;;;5.30;99.90;;;;;;4824173;29;20133;-76
2022/03/26 01:59:05;;;;;;;50.55;22.95;;;5.30;99.90;;;;;;4824860;29;20409;-76
2022/03/26 02:01:34;;;;;;;54.97;24.20;;;5.40;99.90;;;;;;4825519;29;20158;-76
2022/03/26 02:04:04;;;;;;;57.72;26.20;;;5.10;99.90;;;;;;4824907;29;20092;-76
2022/03/26 02:06:32;;;;;;;55.42;27.58;;;5.10;99.90;;;;;;4824532;29;20050;-76
2022/03/26 02:09:05;;;;;;;63.13;28.23;;;5.10;99.90;;;;;;4824924;29;20058;-76
2022/03/26 02:11:36;;;;;;;55.28;25.75;;;5.10;99.90;;;;;;4824774;29;20077;-76
2022/03/26 02:14:03;;;;;;;61.35;27.65;;;5.10;99.90;;;;;;4824850;29;20051;-76
2022/03/26 02:16:30;;;;;;;59.55;27.20;;;5.30;99.90;;;;;;4824894;29;20133;-76
2022/03/26 02:18:56;;;;;;;50.63;25.77;;;5.10;99.90;;;;;;4824836;29;20054;-76
2022/03/26 02:21:22;;;;;;;54.55;25.80;;;5.40;99.90;;;;;;4824848;29;20484;-77
2022/03/26 02:23:50;;;;;;;54.60;27.23;;;5.10;99.90;;;;;;4824789;29;20051;-76
2022/03/26 02:26:17;;;;;;;61.80;27.15;;;4.80;99.90;;;;;;4824663;29;20043;-76
2022/03/26 02:28:44;;;;;;;52.15;23.92;;;4.60;99.90;;;;;;4824718;29;20055;-76
2022/03/26 02:31:13;;;;;;;48.60;23.33;;;5.10;99.90;;;;;;4825200;29;20058;-76
2022/03/26 02:33:40;;;;;;;44.38;20.52;;;4.40;99.90;;;;;;4824375;29;20057;-75
2022/03/26 02:36:06;;;;;;;54.08;25.98;;;4.10;99.90;;;;;;4824644;29;20050;-76
2022/03/26 02:38:32;;;;;;;66.78;29.63;;;4.20;99.90;;;;;;4824696;29;20050;-76
2022/03/26 02:40:59;;;;;;;62.83;27.48;;;4.50;99.90;;;;;;4824315;29;20484;-76
2022/03/26 02:43:25;;;;;;;68.00;30.30;;;4.00;99.90;;;;;;4824513;29;20057;-76
2022/03/26 02:45:51;;;;;;;50.25;24.65;;;4.10;99.90;;;;;;4823420;29;20058;-76
2022/03/26 02:48:17;;;;;;;52.97;24.08;;;4.20;99.90;;;;;;4824517;29;20054;-76
2022/03/26 02:50:44;;;;;;;58.90;26.15;;;3.90;99.90;;;;;;4823473;29;20059;-76
2022/03/26 02:53:11;;;;;;;62.05;27.48;;;3.90;99.90;;;;;;4824457;29;20059;-77
2022/03/26 02:55:38;;;;;;;63.20;30.05;;;4.10;99.90;;;;;;4824376;29;20047;-76
2022/03/26 02:58:05;;;;;;;69.68;29.70;;;3.60;99.90;;;;;;4823662;29;20094;-76
2022/03/26 03:00:31;;;;;;;63.80;28.77;;;3.40;99.90;;;;;;4824312;29;20056;-76
2022/03/26 03:02:57;;;;;;;59.28;27.65;;;3.40;99.90;;;;;;4823412;29;20133;-76
2022/03/26 03:05:23;;;;;;;55.33;25.35;;;4.10;99.90;;;;;;4824165;29;20145;-76
2022/03/26 03:07:48;;;;;;;63.80;27.88;;;3.00;99.90;;;;;;4824775;29;20436;-76
2022/03/26 03:10:18;;;;;;;62.63;29.90;;;3.00;99.90;;;;;;4824879;29;20050;-76
2022/03/26 03:12:45;;;;;;;65.10;29.88;;;3.50;99.90;;;;;;4827673;29;20086;-76
2022/03/26 03:15:11;;;;;;;61.08;26.73;;;3.00;99.90;;;;;;4828367;29;20125;-76
2022/03/26 03:17:38;;;;;;;66.95;28.77;;;2.90;99.90;;;;;;4827423;29;20384;-76
2022/03/26 03:20:06;;;;;;;73.45;32.17;;;2.80;99.90;;;;;;4827204;29;20553;-76
2022/03/26 03:22:32;;;;;;;74.15;30.00;;;2.70;99.90;;;;;;4827509;29;20054;-77
2022/03/26 03:24:58;;;;;;;55.70;25.55;;;3.00;99.90;;;;;;4828006;29;20514;-77
2022/03/26 03:27:24;;;;;;;55.47;24.50;;;3.20;99.90;;;;;;4827325;29;20054;-76
2022/03/26 03:29:49;;;;;;;61.17;25.40;;;2.80;99.90;;;;;;4827412;29;20108;-77
2022/03/26 03:32:15;;;;;;;68.68;29.15;;;2.80;99.90;;;;;;4828112;29;20086;-76
2022/03/26 03:34:41;;;;;;;65.03;29.77;;;2.80;99.90;;;;;;4827412;29;20066;-76
2022/03/26 03:37:07;;;;;;;58.33;26.73;;;3.30;99.90;;;;;;4826107;29;20042;-76
2022/03/26 03:39:33;;;;;;;59.65;26.00;;;2.80;99.90;;;;;;4827253;29;20136;-76
2022/03/26 03:41:59;;;;;;;66.63;27.98;;;2.80;99.90;;;;;;4827215;29;20141;-77
2022/03/26 03:44:25;;;;;;;64.85;29.42;;;2.80;99.90;;;;;;4827153;29;20051;-76
2022/03/26 03:46:51;;;;;;;60.78;27.15;;;2.80;99.90;;;;;;4826761;29;20055;-77
2022/03/26 03:49:17;;;;;;;65.35;29.25;;;2.70;99.90;;;;;;4827605;29;20370;-77
2022/03/26 03:51:43;;;;;;;69.55;30.67;;;3.60;99.90;;;;;;4826767;29;20580;-77
2022/03/26 03:54:09;;;;;;;71.85;27.95;;;2.70;99.90;;;;;;4826059;29;20141;-77
2022/03/26 03:56:35;;;;;;;59.13;27.33;;;2.90;99.90;;;;;;4827212;29;20096;-76
2022/03/26 03:59:00;;;;;;;60.15;25.55;;;2.70;99.90;;;;;;4826854;29;20393;-77
2022/03/26 04:01:26;;;;;;;57.17;25.02;;;2.70;99.90;;;;;;4826813;29;20054;-77
2022/03/26 04:03:52;;;;;;;56.38;26.08;;;2.70;99.90;;;;;;4826794;29;20086;-77
2022/03/26 04:06:17;;;;;;;57.78;26.13;;;2.80;99.90;;;;;;4826676;29;20054;-76
2022/03/26 04:08:43;;;;;;;61.70;25.77;;;2.80;99.90;;;;;;4826529;29;20422;-76
2022/03/26 04:11:09;;;;;;;57.33;25.13;;;2.70;99.90;;;;;;4826774;29;20058;-77
2022/03/26 04:13:35;;;;;;;57.15;26.25;;;2.60;99.90;;;;;;4825442;29;20176;-77
2022/03/26 04:16:01;;;;;;;53.92;24.35;;;2.50;99.90;;;;;;4825661;29;20492;-76
2022/03/26 04:18:27;;;;;;;59.13;26.63;;;2.30;99.90;;;;;;4826529;29;20057;-76
2022/03/26 04:20:53;;;;;;;61.95;26.73;;;2.20;99.90;;;;;;4826490;29;20408;-77
2022/03/26 04:23:20;;;;;;;58.20;24.45;;;2.20;99.90;;;;;;4826545;29;20050;-77
2022/03/26 04:25:46;;;;;;;48.65;24.15;;;2.20;99.90;;;;;;4826901;29;20061;-77
2022/03/26 04:28:12;;;;;;;56.25;24.42;;;2.10;99.90;;;;;;4826663;29;20050;-77
2022/03/26 04:30:38;;;;;;;56.95;25.40;;;2.00;99.90;;;;;;4828580;29;20115;-77
2022/03/26 04:33:04;;;;;;;57.13;24.77;;;2.40;99.90;;;;;;4828952;29;20058;-77
2022/03/26 04:35:30;;;;;;;67.40;27.90;;;2.90;99.90;;;;;;4829753;29;20063;-77
2022/03/26 04:37:56;;;;;;;65.28;28.70;;;1.90;99.90;;;;;;4827944;29;20084;-77
2022/03/26 04:40:23;;;;;;;65.88;27.27;;;1.90;99.90;;;;;;4826728;29;20540;-77
2022/03/26 04:42:49;;;;;;;71.55;29.48;;;2.60;99.90;;;;;;4826591;29;20054;-76
2022/03/26 04:45:15;;;;;;;65.93;29.58;;;1.80;99.90;;;;;;4826212;29;20149;-77
2022/03/26 04:47:41;;;;;;;68.95;27.85;;;1.80;99.90;;;;;;4826287;29;20055;-77
2022/03/26 04:50:07;;;;;;;64.00;27.67;;;2.20;99.90;;;;;;4826934;29;20069;-77
2022/03/26 04:52:33;;;;;;;63.70;25.42;;;2.00;99.90;;;;;;4825785;29;20561;-77
2022/03/26 04:54:59;;;;;;;52.08;23.58;;;2.10;99.90;;;;;;4826781;29;20050;-77
2022/03/26 04:57:25;;;;;;;55.90;24.27;;;2.10;99.90;;;;;;4826071;29;20077;-76
2022/03/26 04:59:51;;;;;;;50.65;21.63;;;2.20;99.90;;;;;;4826687;29;20050;-77
2022/03/26 05:02:16;;;;;;;49.28;22.33;;;2.50;99.90;;;;;;4826282;29;20464;-76
2022/03/26 05:04:42;;;;;;;51.55;23.52;;;2.40;99.90;;;;;;4825547;29;20056;-77
2022/03/26 05:09:52;;;;;;;48.40;22.20;;;2.40;99.90;;;;;;4826585;29;20059;-76
2022/03/26 05:12:19;;;;;;;61.63;27.67;;;2.40;99.90;;;;;;4825252;29;20565;-76
2022/03/26 05:14:44;;;;;;;61.85;28.10;;;2.50;99.90;;;;;;4826139;29;20397;-77
2022/03/26 05:17:10;;;;;;;50.97;24.45;;;3.40;99.90;;;;;;4826112;29;20046;-77
2022/03/26 05:19:36;;;;;;;44.95;20.80;;;2.50;99.90;;;;;;4824435;29;20050;-77
2022/03/26 05:22:03;;;;;;;52.15;22.35;;;3.50;99.90;;;;;;4825973;29;20054;-77
2022/03/26 05:24:30;;;;;;;44.83;21.67;;;2.10;99.90;;;;;;4824606;29;20105;-77
2022/03/26 05:26:56;;;;;;;48.25;23.25;;;2.00;99.90;;;;;;4824180;29;20056;-77
2022/03/26 05:29:21;;;;;;;43.80;21.33;;;2.00;99.90;;;;;;4826057;29;20062;-77
2022/03/26 05:31:47;;;;;;;45.08;20.98;;;1.90;99.90;;;;;;4824636;29;20118;-77
2022/03/26 05:34:13;;;;;;;44.75;22.88;;;1.80;99.90;;;;;;4824880;29;20058;-76
2022/03/26 05:36:39;;;;;;;56.03;21.85;;;1.80;99.90;;;;;;4824675;29;20442;-77
2022/03/26 05:39:05;;;;;;;49.08;22.52;;;1.70;99.90;;;;;;4825825;29;20046;-77
2022/03/26 05:41:32;;;;;;;51.33;23.67;;;1.70;99.90;;;;;;4825373;29;20047;-76
2022/03/26 05:43:59;;;;;;;51.65;23.83;;;2.70;99.90;;;;;;4825336;29;20058;-77
2022/03/26 05:46:25;;;;;;;46.95;21.42;;;1.80;99.90;;;;;;4825224;29;20057;-77
2022/03/26 05:48:50;;;;;;;54.10;22.10;;;2.00;99.90;;;;;;4825470;29;20118;-77
2022/03/26 05:51:16;;;;;;;52.70;23.33;;;3.00;99.90;;;;;;4824291;29;20054;-76
2022/03/26 05:53:42;;;;;;;60.20;23.15;;;2.00;99.90;;;;;;4825177;29;20051;-77
2022/03/26 05:56:07;;;;;;;57.58;22.35;;;2.10;99.90;;;;;;4825515;29;20058;-76
2022/03/26 05:58:34;;;;;;;51.78;22.38;;;2.30;99.90;;;;;;4824178;29;20388;-76
2022/03/26 06:01:00;;;;;;;49.55;22.60;;;2.80;99.90;;;;;;4824720;29;20488;-77
2022/03/26 06:03:26;;;;;;;54.63;24.77;;;2.50;99.90;;;;;;4825542;29;20050;-77
2022/03/26 06:05:52;;;;;;;53.35;23.88;;;3.00;99.90;;;;;;4825180;29;20126;-76
2022/03/26 06:08:17;;;;;;;58.92;25.15;;;2.80;99.90;;;;;;4824968;29;20097;-76
2022/03/26 06:10:43;;;;;;;62.95;27.15;;;3.10;99.90;;;;;;4825420;29;20405;-77
2022/03/26 06:13:09;;;;;;;66.60;27.95;;;2.80;99.90;;;;;;4824552;29;20090;-77
2022/03/26 06:15:36;;;;;;;77.07;31.13;;;2.90;99.90;;;;;;4824131;29;20499;-77
2022/03/26 06:18:03;;;;;;;61.70;27.38;;;3.00;99.90;;;;;;4824681;29;20061;-77
2022/03/26 06:20:29;;;;;;;76.85;31.02;;;3.10;99.90;;;;;;4824807;29;20125;-77
2022/03/26 06:22:55;;;;;;;73.15;29.55;;;3.30;99.90;;;;;;4824756;29;20062;-77
2022/03/26 06:25:21;;;;;;;72.45;28.95;;;3.60;99.90;;;;;;4824649;29;20057;-77
2022/03/26 06:27:47;;;;;;;78.80;32.30;;;4.10;99.90;;;;;;4825484;29;20129;-77
2022/03/26 06:30:13;;;;;;;65.97;29.83;;;4.00;99.90;;;;;;4824744;29;20219;-77
2022/03/26 06:32:41;;;;;;;76.75;32.03;;;3.80;99.90;;;;;;4824732;29;20526;-77
2022/03/26 06:35:07;;;;;;;83.20;33.30;;;3.90;99.90;;;;;;4824053;29;20127;-76
2022/03/26 06:37:33;;;;;;;79.93;33.10;;;4.00;99.90;;;;;;4824617;29;20058;-77
2022/03/26 06:39:58;;;;;;;92.28;35.40;;;4.20;99.90;;;;;;4824402;29;20061;-76
2022/03/26 06:42:25;;;;;;;83.35;36.35;;;4.30;99.90;;;;;;4838435;29;20408;-76
2022/03/26 06:44:58;;;;;;;85.18;35.95;;;4.50;99.90;;;;;;4838552;29;20198;-76
2022/03/26 06:47:28;;;;;;;102.43;38.35;;;4.60;99.90;;;;;;4825023;29;20380;-77
2022/03/26 06:49:55;;;;;;;97.07;39.22;;;4.70;99.90;;;;;;4825203;29;20117;-77
2022/03/26 06:52:23;;;;;;;90.22;37.15;;;4.90;99.90;;;;;;4824452;29;20404;-77
2022/03/26 06:54:48;;;;;;;90.93;37.85;;;5.00;99.90;;;;;;4824408;29;20061;-77
2022/03/26 06:57:14;;;;;;;98.05;40.50;;;5.10;99.90;;;;;;4823500;29;20397;-77
2022/03/26 06:59:40;;;;;;;93.72;39.20;;;5.70;99.90;;;;;;4823228;29;20062;-76
2022/03/26 07:02:06;;;;;;;90.55;39.05;;;5.40;99.90;;;;;;4824357;29;20058;-77
2022/03/26 07:04:32;;;;;;;92.68;39.22;;;5.60;99.90;;;;;;4824252;29;20089;-77
2022/03/26 07:06:58;;;;;;;96.25;38.90;;;5.70;99.90;;;;;;4824223;29;20092;-77
2022/03/26 07:09:23;;;;;;;93.85;37.50;;;5.80;99.90;;;;;;4824230;29;20061;-77
2022/03/26 07:11:52;;;;;;;84.35;34.97;;;6.00;99.90;;;;;;4824229;29;20053;-77
2022/03/26 07:14:18;;;;;;;95.50;37.45;;;6.20;99.90;;;;;;4824056;29;20377;-77
2022/03/26 07:16:44;;;;;;;91.78;36.83;;;6.40;99.90;;;;;;4838094;29;20047;-78
2022/03/26 07:19:10;;;;;;;90.95;36.35;;;6.60;99.90;;;;;;4824121;29;20403;-78
2022/03/26 07:21:37;;;;;;;94.30;39.25;;;6.80;99.90;;;;;;4823263;29;20138;-78
2022/03/26 07:24:04;;;;;;;86.95;34.72;;;7.00;99.90;;;;;;4823846;29;20504;-78
2022/03/26 07:26:30;;;;;;;84.22;36.53;;;7.20;99.90;;;;;;4822901;29;20102;-78
2022/03/26 07:28:56;;;;;;;88.78;38.70;;;7.30;99.90;;;;;;4838253;29;20112;-78
2022/03/26 07:31:22;;;;;;;78.60;33.28;;;7.50;99.90;;;;;;4823097;29;20114;-78
2022/03/26 07:33:48;;;;;;;86.78;37.80;;;7.60;99.90;;;;;;4823681;29;20065;-77
2022/03/26 07:36:13;;;;;;;85.68;35.92;;;7.70;99.90;;;;;;4839047;29;20054;-77
2022/03/26 07:38:39;;;;;;;79.90;33.08;;;7.90;99.90;;;;;;4822955;29;20065;-77
2022/03/26 07:41:05;;;;;;;86.70;35.63;;;8.00;99.90;;;;;;4823902;29;20054;-77
2022/03/26 07:43:31;;;;;;;81.80;34.03;;;8.10;99.90;;;;;;4823868;29;20058;-77
2022/03/26 07:45:56;;;;;;;70.38;31.30;;;8.20;99.90;;;;;;4822703;29;20055;-77
2022/03/26 07:48:22;;;;;;;79.20;32.58;;;8.40;99.90;;;;;;4823912;29;20138;-82
2022/03/26 07:50:49;;;;;;;74.50;32.70;;;8.50;99.90;;;;;;4823126;29;20065;-84
2022/03/26 07:53:15;;;;;;;73.72;30.65;;;8.70;99.90;;;;;;4823637;29;20054;-83
2022/03/26 07:55:41;;;;;;;76.28;31.67;;;8.80;99.90;;;;;;4823903;29;20046;-83
2022/03/26 07:58:07;;;;;;;63.10;30.33;;;9.10;99.90;;;;;;4826312;29;20368;-83
2022/03/26 08:00:33;;;;;;;58.40;27.35;;;9.20;99.90;;;;;;4826877;29;20050;-83
2022/03/26 08:02:58;;;;;;;57.47;26.20;;;9.40;99.90;;;;;;4840963;29;20058;-83
2022/03/26 08:05:24;;;;;;;61.78;27.80;;;9.60;99.90;;;;;;4825773;29;20093;-83
2022/03/26 08:07:50;;;;;;;62.50;26.60;;;9.70;99.90;;;;;;4826782;29;20057;-84
2022/03/26 08:10:16;;;;;;;60.28;27.15;;;9.90;99.90;;;;;;4825805;29;20070;-83
2022/03/26 08:12:41;;;;;;;53.67;24.88;;;10.20;99.90;;;;;;4827394;29;20459;-82
2022/03/26 08:15:07;;;;;;;53.83;25.17;;;10.20;99.90;;;;;;4829491;29;20408;-83
2022/03/26 08:17:33;;;;;;;49.55;22.52;;;10.40;99.90;;;;;;4827850;29;20523;-84
2022/03/26 08:19:59;;;;;;;54.97;23.77;;;10.50;99.90;;;;;;4827530;29;20062;-82
2022/03/26 08:22:25;;;;;;;47.72;22.25;;;10.60;99.90;;;;;;4827533;29;20469;-82
2022/03/26 08:24:50;;;;;;;49.42;23.02;;;10.70;99.90;;;;;;4825600;29;20400;-83
2022/03/26 08:27:16;;;;;;;53.85;25.08;;;10.90;99.90;;;;;;4840619;29;20043;-83
2022/03/26 08:29:42;;;;;;;53.28;24.40;;;11.00;99.90;;;;;;4827222;29;20577;-82
2022/03/26 08:32:08;;;;;;;49.42;23.52;;;11.20;99.90;;;;;;4826535;29;20136;-82
2022/03/26 08:34:34;;;;;;;47.65;21.83;;;11.20;99.90;;;;;;4826154;29;20062;-83
2022/03/26 08:36:59;;;;;;;46.38;20.65;;;11.30;99.90;;;;;;4826400;29;20053;-83
2022/03/26 08:39:25;;;;;;;42.85;20.58;;;11.50;99.90;;;;;;4826440;29;20046;-82
2022/03/26 08:41:51;;;;;;;41.10;20.10;;;11.60;99.90;;;;;;4825417;29;20062;-83
2022/03/26 08:44:16;;;;;;;43.88;19.58;;;11.70;99.90;;;;;;4825365;29;20563;-82
2022/03/26 08:46:42;;;;;;;43.30;20.67;;;11.70;99.90;;;;;;4826662;29;20050;-82
2022/03/26 08:49:08;;;;;;;44.92;19.65;;;11.90;99.90;;;;;;4826227;29;20162;-82
2022/03/26 08:51:33;;;;;;;39.17;17.83;;;12.00;99.90;;;;;;4825030;29;20057;-82
2022/03/26 08:53:59;;;;;;;43.85;19.25;;;12.10;99.90;;;;;;4840207;29;20053;-83
2022/03/26 08:56:25;;;;;;;39.20;18.35;;;12.20;99.90;;;;;;4826155;29;20055;-82
2022/03/26 08:58:51;;;;;;;42.45;19.83;;;12.40;99.90;;;;;;4826068;29;20089;-83
2022/03/26 09:01:17;;;;;;;42.13;20.33;;;12.50;99.90;;;;;;4840087;29;20385;-82
2022/03/26 09:03:43;;;;;;;38.50;17.35;;;12.60;99.90;;;;;;4825303;29;20046;-84
2022/03/26 09:06:09;;;;;;;41.15;18.95;;;12.80;99.90;;;;;;4825801;29;20149;-83
2022/03/26 09:08:36;;;;;;;34.33;15.63;;;12.90;99.90;;;;;;4824395;29;20054;-82
2022/03/26 09:11:04;;;;;;;41.58;18.45;;;13.00;99.90;;;;;;4825820;29;20096;-82
2022/03/26 09:13:30;;;;;;;40.67;18.50;;;13.10;99.90;;;;;;4825481;29;20492;-82
2022/03/26 09:15:56;;;;;;;33.20;17.13;;;13.30;99.90;;;;;;4825730;29;20058;-83
2022/03/26 09:18:22;;;;;;;28.73;14.95;;;13.40;99.90;;;;;;4825832;29;20062;-85
2022/03/26 09:20:48;;;;;;;32.10;15.38;;;13.50;99.90;;;;;;4824840;29;20050;-90
2022/03/26 09:23:15;;;;;;;28.95;15.25;;;13.50;99.90;;;;;;4825743;29;20085;-87
2022/03/26 09:25:42;;;;;;;31.13;15.20;;;13.60;99.90;;;;;;4824394;29;20122;-80
2022/03/26 09:28:08;;;;;;;32.25;15.75;;;13.60;99.90;;;;;;4826052;29;20469;-83
2022/03/26 09:30:34;;;;;;;29.17;14.63;;;13.70;99.90;;;;;;4825228;29;20591;-84
2022/03/26 09:33:00;;;;;;;32.88;15.55;;;13.80;99.90;;;;;;4825351;29;20058;-85
2022/03/26 09:35:26;;;;;;;27.33;14.32;;;13.90;99.90;;;;;;4824366;29;20397;-85
2022/03/26 09:37:52;;;;;;;30.23;15.85;;;14.10;99.90;;;;;;4825616;29;20125;-85
2022/03/26 09:40:21;;;;;;;33.58;15.48;;;14.30;99.90;;;;;;4825223;29;20462;-85
2022/03/26 09:42:49;;;;;;;32.00;15.85;;;14.50;99.90;;;;;;4824470;29;20046;-85
2022/03/26 09:45:14;;;;;;;27.55;15.35;;;14.60;99.90;;;;;;4825359;29;20133;-85
2022/03/26 09:47:40;;;;;;;28.95;15.18;;;14.80;99.90;;;;;;4825498;29;20142;-86
2022/03/26 09:50:08;;;;;;;28.00;15.55;;;14.90;99.90;;;;;;4809279;29;20114;-86
2022/03/26 09:52:35;;;;;;;29.13;16.73;;;15.00;99.90;;;;;;4824126;29;20066;-80
2022/03/26 09:55:02;;;;;;;26.08;14.82;;;15.10;99.90;;;;;;4824568;29;20416;-84
2022/03/26 09:57:29;;;;;;;23.98;14.07;;;15.10;99.90;;;;;;4825214;29;20057;-81
2022/03/26 09:59:56;;;;;;;26.63;14.60;;;15.10;99.90;;;;;;4824095;29;20179;-80
2022/03/26 10:02:22;;;;;;;23.98;13.70;;;15.20;99.90;;;;;;4823988;29;20061;-81
2022/03/26 10:04:47;;;;;;;24.77;14.57;;;15.30;99.90;;;;;;4825042;29;20054;-82
2022/03/26 10:07:13;;;;;;;23.92;13.25;;;15.40;99.90;;;;;;4839632;29;20051;-83
2022/03/26 10:09:46;;;;;;;18.50;11.52;;;15.40;99.90;;;;;;4808809;29;20397;-83
2022/03/26 10:12:21;;;;;;;16.33;10.85;;;15.50;99.90;;;;;;4824236;29;20137;-83
2022/03/26 10:14:54;;;;;;;16.42;9.02;;;15.60;99.90;;;;;;4823988;29;20496;-82
2022/03/26 10:17:28;;;;;;;18.30;9.82;;;15.80;99.90;;;;;;4824620;29;20114;-84
2022/03/26 10:20:02;;;;;;;16.08;9.88;;;16.00;99.90;;;;;;4824792;29;20058;-85
2022/03/26 10:22:36;;;;;;;15.55;9.45;;;16.10;99.90;;;;;;4824319;29;20058;-85
2022/03/26 10:25:10;;;;;;;15.85;9.30;;;16.20;99.90;;;;;;4824099;29;20057;-85
2022/03/26 10:27:51;;;;;;;18.58;10.27;;;16.40;99.90;;;;;;4809262;29;20376;-85
2022/03/26 10:32:38;;;;;;;13.68;9.48;;;16.50;99.90;;;;;;4825022;29;20062;-86
2022/03/26 10:33:27;;;;;;;16.35;9.27;;;16.50;99.90;;;;;;4824831;29;20058;-86
2022/03/26 10:36:01;;;;;;;14.73;9.63;;;16.70;99.90;;;;;;4823934;29;20531;-84
2022/03/26 10:38:42;;;;;;;18.67;10.68;;;16.80;99.90;;;;;;4824717;29;20092;-85
2022/03/26 10:41:09;;;;;;;15.55;10.32;;;16.90;99.90;;;;;;4824755;29;20500;-83
2022/03/26 10:43:36;;;;;;;16.58;10.48;;;16.90;99.90;;;;;;4824704;29;20228;-82
2022/03/26 10:46:02;;;;;;;17.10;10.80;;;16.90;99.90;;;;;;4824437;29;20046;-82
2022/03/26 10:48:34;;;;;;;17.17;11.90;;;16.90;99.90;;;;;;4824417;29;20065;-83
2022/03/26 10:51:15;;;;;;;19.65;11.80;;;16.90;99.90;;;;;;4824666;29;20510;-81
2022/03/26 10:53:49;;;;;;;16.83;10.95;;;17.10;99.90;;;;;;4825030;29;20050;-84
2022/03/26 10:56:15;;;;;;;19.05;12.07;;;17.20;99.90;;;;;;4823354;29;20053;-78
2022/03/26 10:58:43;;;;;;;19.20;11.65;;;17.20;99.90;;;;;;4824422;29;20054;-80
2022/03/26 11:01:09;;;;;;;18.42;12.10;;;17.10;99.90;;;;;;4824852;29;20094;-81
2022/03/26 11:03:36;;;;;;;18.42;9.82;;;16.90;99.90;;;;;;4823976;29;20093;-81
2022/03/26 11:06:06;;;;;;;17.30;10.30;;;16.80;99.90;;;;;;4824134;29;20053;-82
2022/03/26 11:08:35;;;;;;;17.95;11.20;;;16.90;99.90;;;;;;4824503;29;20088;-82
2022/03/26 11:11:07;;;;;;;17.60;10.35;;;17.00;99.90;;;;;;4824148;29;20408;-83
2022/03/26 11:13:36;;;;;;;15.55;9.43;;;17.10;99.90;;;;;;4824075;29;20058;-81
2022/03/26 11:16:07;;;;;;;17.50;11.32;;;17.10;99.90;;;;;;4824196;29;20489;-84
2022/03/26 11:18:51;;;;;;;15.82;10.10;;;17.10;99.90;;;;;;4838944;29;20097;-81
2022/03/26 11:21:44;;;;;;;17.38;10.13;;;17.10;99.90;;;;;;4824933;29;20503;-81
2022/03/26 11:24:13;;;;;;;16.48;11.20;;;17.20;99.90;;;;;;4824348;29;20087;-80
2022/03/26 11:26:54;;;;;;;19.27;10.38;;;17.30;99.90;;;;;;4823988;29;20113;-88
2022/03/26 11:29:27;;;;;;;15.85;10.25;;;17.50;99.90;;;;;;4823853;29;20051;-83
2022/03/26 11:32:16;;;;;;;16.63;10.90;;;17.50;99.90;;;;;;4825721;29;20114;-82
2022/03/26 11:34:41;;;;;;;18.25;11.30;;;17.40;99.90;;;;;;4827516;29;20081;-81
2022/03/26 11:37:11;;;;;;;16.02;11.23;;;17.30;99.90;;;;;;4827297;29;20106;-81
2022/03/26 11:39:46;;;;;;;17.10;11.52;;;17.20;99.90;;;;;;4826302;29;20058;-81
2022/03/26 11:42:12;;;;;;;17.15;10.63;;;17.10;99.90;;;;;;4826977;29;20512;-79
2022/03/26 11:44:45;;;;;;;15.07;9.93;;;16.90;99.90;;;;;;4826186;29;20104;-80
2022/03/26 11:53:09;;;;;;;14.07;8.98;;;17.10;99.90;;;;;;4827340;29;20055;-80
2022/03/26 11:55:41;;;;;;;13.68;8.95;;;17.10;99.90;;;;;;4825873;29;20054;-80
2022/03/26 11:58:20;;;;;;;12.93;8.60;;;17.10;99.90;;;;;;4827240;29;20097;-80
2022/03/26 12:01:04;;;;;;;16.63;8.73;;;17.10;99.90;;;;;;4825511;29;20473;-82
2022/03/26 12:03:41;;;;;;;14.55;9.25;;;17.10;99.90;;;;;;4826924;29;20195;-80
2022/03/26 12:08:58;;;;;;;12.45;8.00;;;17.60;99.90;;;;;;4828168;29;20054;-82
2022/03/26 12:12:04;;;;;;;12.77;8.07;;;17.70;99.90;;;;;;4830034;29;20406;-81
2022/03/26 12:14:30;;;;;;;11.38;7.82;;;17.70;99.90;;;;;;4833279;29;20058;-80
2022/03/26 12:16:57;;;;;;;12.18;8.10;;;17.80;99.90;;;;;;4826781;29;20050;-83
2022/03/26 12:19:47;;;;;;;9.35;6.60;;;17.90;99.90;;;;;;4827121;29;20054;-81
2022/03/26 12:22:32;;;;;;;10.57;6.97;;;17.90;99.90;;;;;;4826744;29;20046;-81
2022/03/26 12:25:03;;;;;;;10.43;6.57;;;18.00;99.90;;;;;;4826848;29;20070;-81
2022/03/26 12:27:29;;;;;;;9.65;7.03;;;18.00;99.90;;;;;;4826943;29;20133;-82
2022/03/26 12:29:57;;;;;;;10.10;7.22;;;18.00;99.90;;;;;;4825556;29;20050;-81
2022/03/26 12:32:33;;;;;;;10.65;7.03;;;18.10;99.90;;;;;;4826478;29;20449;-83
2022/03/26 12:35:05;;;;;;;11.73;6.68;;;18.00;99.90;;;;;;4825286;29;20058;-82
2022/03/26 12:37:35;;;;;;;9.43;6.20;;;18.20;99.90;;;;;;4826451;29;20061;-83
2022/03/26 12:40:04;;;;;;;11.40;6.60;;;18.60;99.90;;;;;;4810515;29;20058;-81
2022/03/26 12:42:29;;;;;;;9.93;6.05;;;18.90;99.90;;;;;;4824208;29;20050;-83
2022/03/26 12:44:55;;;;;;;10.45;7.03;;;19.00;99.90;;;;;;4825415;29;20102;-84
2022/03/26 12:47:24;;;;;;;10.15;6.70;;;18.80;99.90;;;;;;4825798;29;20054;-83
2022/03/26 12:49:51;;;;;;;8.70;6.43;;;18.70;99.90;;;;;;4826339;29;20133;-79